Fédération internationale de Ski
Member Section
Print

OFFICIAL RESULTS

Reiteralm (AUT) 13.01.2018

CIT Arnold Lunn World Cup - Ladies' Giant Slalom OFFICIAL RESULTS

Race codex : 5173
Valid for FIS Points : YES
1 files available



Jury
TD FIS AUERNIG PETER AUT
Referee Gerold Posch AUT
Chief of Race Reinhard Kornberger AUT
Technical Data
Start Altitude 1660 m.
Finish Altitude 1390 m.
Vertical Drop 270 m.
Homologation Number 12706/01/18
Run 1
Course Setter Stefan Gattinger AUT
Number of Gates 35
Turning Gates 33
Start Time 09:00
Run 2
Course Setter Thomas Salchegger AUT
Number of Gates 35
Turning Gates 33
Start Time 13:00
 
Show more info»

Competitors

Rank Bib FIS Code Name Year Nation Run 1 Run 2 Total Time Diff. FIS Points CITWC Points
 1  8  206833 LOIPETSSPERGER Lisa Marie  2000  GER   52.08  51.86  1:43.94     34.04  100
 2  2  405160 TAN Claire  1998  NED   51.93  52.06  1:43.99  +0.05  34.51  80
 3  60  225733 PALLA Victoria  2001  GBR   52.36  52.19  1:44.55  +0.61  39.79  60
 4  23  56499 ABSMANN Sandra  2000  AUT   52.25  52.70  1:44.95  +1.01  43.56  50
 5  14  56459 METZNER Christina  1999  AUT   52.43  52.56  1:44.99  +1.05  43.94  45
 6  9  56405 KARWANN Julia  1998  AUT   52.85  53.04  1:45.89  +1.95  52.43  40
 7  28  65130 DE LEEUW Julie  2001  BEL   53.05  52.92  1:45.97  +2.03  53.18  36
 8  64  56563 OEBSTER Celine Maria  2001  AUT   53.41  52.62  1:46.03  +2.09  53.75  32
 9  24  56547 SCHAEDLE Tina  2001  AUT   52.67  53.42  1:46.09  +2.15  54.31  29
 10  38  56397 GIGELE Jana  1997  AUT   53.11  53.21  1:46.32  +2.38  56.48  26
 11  25  56478 OBERLADER Carolina  1999  AUT   53.55  53.38  1:46.93  +2.99  62.23  24
 12  77  56561 BRANDNER Laura  2001  AUT   53.84  53.11  1:46.95  +3.01  62.42  22
 13  17  56460 THALER Nadine  1999  AUT   53.64  53.40  1:47.04  +3.10  63.27  20
 14  41  56525 TREICHL Lena  2000  AUT   53.51  53.63  1:47.14  +3.20  64.21  18
 15  37  435420 ZDORT Zofia  2000  POL   53.56  53.65  1:47.21  +3.27  64.87  16
 16  48  225757 WOODWARD Sarah  2001  GBR   53.97  53.36  1:47.33  +3.39  66.00  15
 17  10  206823 MEHNER Julia  1999  GER   53.18  54.21  1:47.39  +3.45  66.57  14
 18  75  56538 PICHLER Anja  2001  AUT   53.92  53.49  1:47.41  +3.47  66.76  13
 19  20  56463 EBERHARTER Olivia  1999  AUT   53.87  53.55  1:47.42  +3.48  66.85  12
 20  45  155870 KASPAROVA Klara  1998  CZE   53.50  53.95  1:47.45  +3.51  67.13  11
 21  43  56480 ANDEXER Alexandra  1999  AUT   53.70  53.76  1:47.46  +3.52  67.23  10
 22  83  56559 WALLINGER Maria-Anna  2001  AUT   54.05  53.53  1:47.58  +3.64  68.36  9
 23  3  155880 BUBAKOVA Nikola  1999  CZE   53.59  54.03  1:47.62  +3.68  68.74  8
 24  39  155951 GASPARIKOVA Klara  2001  CZE   53.99  53.64  1:47.63  +3.69  68.83  7
 24  29  496302 VILA Silvia  1997  ESP   53.33  54.30  1:47.63  +3.69  68.83  7
 26  27  56504 HARTWEGER Valentina  2000  AUT   54.00  53.99  1:47.99  +4.05  72.23  5
 27  1  56407 BAUER Sabrina  1998  AUT   54.20  53.97  1:48.17  +4.23  73.92  4
 28  21  486089 KARACHUN Aleksandra  2000  RUS   54.13  54.08  1:48.21  +4.27  74.30  3
 29  50  56557 FLORIANTSCHITZ Alisa  2001  AUT   54.31  53.92  1:48.23  +4.29  74.49  2
 30  22  56530 FLATSCHER Julia  2000  AUT   54.44  54.16  1:48.60  +4.66  77.98  1
 31  42  56465 SCHNEEBERGER Christina  1999  AUT   53.71  55.00  1:48.71  +4.77  79.01  0
 32  7  155887 POSPISILOVA Klara  1999  CZE   54.43  54.29  1:48.72  +4.78  79.11  0
 33  44  56506 MOSER Anna  2000  AUT   54.79  54.05  1:48.84  +4.90  80.24  0
 34  66  56537 JAMNIG Celina  2001  AUT   55.03  53.89  1:48.92  +4.98  80.99  0
 35  40  225639 GUEST Kirsty  1997  GBR   54.37  54.56  1:48.93  +4.99  81.09  0
 35  11  225659 ANDERSON Jessica  1998  GBR   55.14  53.79  1:48.93  +4.99  81.09  0
 37  19  155848 NOVA Tereza  1998  CZE   55.33  53.61  1:48.94  +5.00  81.18  0
 38  4  555035 BONDARE Liene  1996  LAT   54.17  54.80  1:48.97  +5.03  81.47  0
 39  61  185479 KIVIRANTA Nette  2001  FIN   54.42  54.66  1:49.08  +5.14  82.50  0
 40  35  56494 LASINGER Anna-Sophie  2000  AUT   54.42  55.12  1:49.54  +5.60  86.84  0
 41  18  496419 ALVAREZ Irene  2000  ESP   54.78  54.83  1:49.61  +5.67  87.50  0
 42  86  56546 FUCHS Lisa-marie  2001  AUT   55.21  54.45  1:49.66  +5.72  87.97  0
 43  53  225739 FOSTER Olivia  2001  GBR   55.02  54.74  1:49.76  +5.82  88.91  0
 44  71  56528 GRUENER Eva  2000  AUT   55.11  54.72  1:49.83  +5.89  89.57  0
 45  90  56570 WEISSENSTEINER Chiara  2001  AUT   55.07  54.80  1:49.87  +5.93  89.95  0
 46  69  56514 MOROLZ Greta  2000  AUT   55.28  54.61  1:49.89  +5.95  90.14  0
 47  65  155924 VYDROVA Viktorie  2000  CZE   54.81  55.10  1:49.91  +5.97  90.33  0
 47  32  56485 GRUENER Sara  1999  AUT   54.69  55.22  1:49.91  +5.97  90.33  0
 49  87  56535 OBERDANNER Anna  2001  AUT   54.89  55.24  1:50.13  +6.19  92.40  0
 49  70  56567 RIEDER Selina  2001  AUT   55.50  54.63  1:50.13  +6.19  92.40  0
 51  74  56511 PILZ Lisa  2000  AUT   55.07  55.10  1:50.17  +6.23  92.78  0
 52  31  435440 CHYLA Maja  2001  POL   54.74  55.45  1:50.19  +6.25  92.97  0
 53  36  496358 VALERO Adriana  1998  ESP   54.73  55.56  1:50.29  +6.35  93.91  0
 54  73  56448 DORNER Laura  1999  AUT   55.21  55.51  1:50.72  +6.78  97.97  0
 55  82  56543 REINDL Lena  2001  AUT   55.52  55.25  1:50.77  +6.83  98.44  0
 56  30  56421 RETTENBACHER Karoline  1998  AUT   55.18  55.74  1:50.92  +6.98  99.85  0
 57  59  206895 BEER Doris  1999  GER   55.12  55.89  1:51.01  +7.07  100.70  0
 58  16  225650 STILL Ella  1997  GBR   55.24  55.82  1:51.06  +7.12  101.17  0
 59  80  56503 FELLNER Sophia  2000  AUT   56.07  55.42  1:51.49  +7.55  105.23  0
 60  46  6295098 SILVERIO Elin  1999  ITA   55.34  56.39  1:51.73  +7.79  107.49  0
 61  68  155910 GILAROVA Radka  2000  CZE   56.09  55.76  1:51.85  +7.91  108.62  0
 62  72  56467 MAIER Victoria  1999  AUT   55.79  56.15  1:51.94  +8.00  109.47  0
 63  56  65122 VAN DEN BOSCH Louise  1997  BEL   55.31  56.65  1:51.96  +8.02  109.66  0
 64  63  65114 KEMPENAERS Elle  1998  BEL   55.69  56.37  1:52.06  +8.12  110.60  0
 65  51  56166 LAIR Sabrina  1993  AUT   56.26  55.88  1:52.14  +8.20  111.35  0
 66  67  56520 KOGLER Viktoria  2000  AUT   55.52  56.71  1:52.23  +8.29  112.20  0
 67  76  151243 ZEMANOVA Monika  1998  CZE   55.91  56.53  1:52.44  +8.50  114.18  0
 68  54  225715 WARD Olivia  2000  GBR   55.88  56.64  1:52.52  +8.58  114.94  0
 69  57  206854 LOCHNER Katharina  2000  GER   56.55  56.30  1:52.85  +8.91  118.05  0
 70  78  155912 SVATOSOVA Barbora  2000  CZE   56.61  57.16  1:53.77  +9.83  126.72  0
 71  102  245081 JUNIA Brigitta  2001  HUN   56.37  58.03  1:54.40  +10.46  132.66  0
 72  79  206815 NEUBRAND Johanna Maria  1999  GER   56.88  57.57  1:54.45  +10.51  133.13  0
 73  93  955000 OETTL REYES Ornella  1991  PER   57.78  57.10  1:54.88  +10.94  137.19  0
 74  58  6295258 CAPUCCI Eva  2000  ITA   57.17  57.80  1:54.97  +11.03  138.04  0
 75  91  56569 STEINER Giuliana  2001  AUT   57.17  57.82  1:54.99  +11.05  138.23  0
 76  100  56565 SCHULHOFER Mairin  2001  AUT   55.08  1:00.04  1:55.12  +11.18  139.45  0
 77  89  206788 HAUG Lena  1998  GER   57.15  58.07  1:55.22  +11.28  140.39  0
 78  88  56531 WIMMER Theresa  2000  AUT   57.67  58.43  1:56.10  +12.16  148.69  0
 79  85  155944 SOUCKOVA Tereza  2001  CZE   57.27  58.86  1:56.13  +12.19  148.97  0
 80  95  85024 MARANO Chiara  1993  BRA   58.25  1:00.59  1:58.84  +14.90  174.52  0
 81  96  960650 MARINO Julia  1992  PAR   1:00.31  1:00.61  2:00.92  +16.98  194.14  0
 82  94  299531 BUCCINO Debora  1996  ITA   1:01.20  1:02.69  2:03.89  +19.95  222.14  0
 83  97  206530 RITTER Jessica  1994  GER   1:03.52  1:05.50  2:09.02  +25.08  270.51  0
 84  98  415237 BENSEMAN Lauren  2001  NZL   1:05.16  1:06.36  2:11.52  +27.58  294.08  0
Did not finish 2nd run
   52  255426 FINNBOGADOTTIR Maria  2000  ISL             0
   47  56545 WIDAUER Victoria  2001  AUT             0
   34  435401 CZAPSKA Zuzanna  1998  POL             0
   15  225709 BRUCE Abi  2000  GBR             0
   6  225641 CLISSOLD Honor  1997  GBR             0
Did not start 2nd run
   49  56481 OBERDANNER Sophia  1999  AUT             0
Did not finish 1st run
   101  6295563 BIOLO Giulia  2001  ITA             0
   99  56572 LOIPOLD Lena  2000  AUT             0
   92  56571 CZACH Laura  2001  AUT             0
   81  56542 PARIASEK Ella  2001  AUT             0
   62  56548 WALDAUF Sophia  2001  AUT             0
   55  206835 BERGER Franziska  2000  GER             0
   33  56522 RAGGL Mira  2000  AUT             0
   26  206868 MARGREITER Lucy  2001  GER             0
   13  45411 TOMKINSON Lily  1997  AUS             0
   12  56452 SCHREMPF Sarah  1999  AUT             0
   5  56508 UNTERBERGER Celina  2000  AUT             0
Did not start 1st run
   84  56562 MITTERDORFER Sophie  2001  AUT             0